sensor_id;sensor_type;location;lat;lon;timestamp;P1;durP1;ratioP1;P2;durP2;ratioP2
48873;SDS011;35220;46.204;5.220;2022-12-07T00:00:30;41.90;;;14.90;;
48873;SDS011;35220;46.204;5.220;2022-12-07T00:05:30;40.38;;;14.80;;
48873;SDS011;35220;46.204;5.220;2022-12-07T00:10:33;34.30;;;13.90;;
48873;SDS011;35220;46.204;5.220;2022-12-07T00:15:34;50.17;;;13.98;;
48873;SDS011;35220;46.204;5.220;2022-12-07T00:20:35;35.72;;;14.27;;
48873;SDS011;35220;46.204;5.220;2022-12-07T00:25:36;41.63;;;13.00;;
48873;SDS011;35220;46.204;5.220;2022-12-07T00:30:36;38.63;;;14.60;;
48873;SDS011;35220;46.204;5.220;2022-12-07T00:35:37;41.05;;;14.00;;
48873;SDS011;35220;46.204;5.220;2022-12-07T00:40:37;35.90;;;14.05;;
48873;SDS011;35220;46.204;5.220;2022-12-07T00:45:38;49.53;;;16.25;;
48873;SDS011;35220;46.204;5.220;2022-12-07T00:50:38;42.20;;;14.85;;
48873;SDS011;35220;46.204;5.220;2022-12-07T00:55:39;41.85;;;14.82;;
48873;SDS011;35220;46.204;5.220;2022-12-07T01:00:40;42.95;;;14.77;;
48873;SDS011;35220;46.204;5.220;2022-12-07T01:05:51;42.90;;;14.63;;
48873;SDS011;35220;46.204;5.220;2022-12-07T01:11:00;42.08;;;14.20;;
48873;SDS011;35220;46.204;5.220;2022-12-07T01:16:05;33.88;;;13.25;;
48873;SDS011;35220;46.204;5.220;2022-12-07T01:21:11;34.35;;;13.95;;
48873;SDS011;35220;46.204;5.220;2022-12-07T01:26:16;32.03;;;12.77;;
48873;SDS011;35220;46.204;5.220;2022-12-07T01:31:20;31.33;;;12.20;;
48873;SDS011;35220;46.204;5.220;2022-12-07T01:36:23;34.03;;;12.13;;
48873;SDS011;35220;46.204;5.220;2022-12-07T01:41:27;30.33;;;12.98;;
48873;SDS011;35220;46.204;5.220;2022-12-07T01:46:30;35.47;;;13.65;;
48873;SDS011;35220;46.204;5.220;2022-12-07T01:56:30;33.40;;;12.35;;
48873;SDS011;35220;46.204;5.220;2022-12-07T02:01:32;31.83;;;12.35;;
48873;SDS011;35220;46.204;5.220;2022-12-07T02:06:32;30.55;;;12.02;;
48873;SDS011;35220;46.204;5.220;2022-12-07T02:11:36;29.48;;;12.02;;
48873;SDS011;35220;46.204;5.220;2022-12-07T02:32:27;25.52;;;10.65;;
48873;SDS011;35220;46.204;5.220;2022-12-07T02:38:02;22.73;;;9.63;;
48873;SDS011;35220;46.204;5.220;2022-12-07T02:43:15;22.42;;;9.00;;
48873;SDS011;35220;46.204;5.220;2022-12-07T02:48:19;23.70;;;11.25;;
48873;SDS011;35220;46.204;5.220;2022-12-07T03:09:32;19.08;;;8.50;;
48873;SDS011;35220;46.204;5.220;2022-12-07T03:14:40;21.83;;;8.45;;
48873;SDS011;35220;46.204;5.220;2022-12-07T03:19:45;17.13;;;8.23;;
48873;SDS011;35220;46.204;5.220;2022-12-07T03:24:50;16.67;;;7.78;;
48873;SDS011;35220;46.204;5.220;2022-12-07T03:29:55;15.13;;;7.57;;
48873;SDS011;35220;46.204;5.220;2022-12-07T03:35:05;19.40;;;7.70;;
48873;SDS011;35220;46.204;5.220;2022-12-07T03:40:20;15.63;;;7.32;;
48873;SDS011;35220;46.204;5.220;2022-12-07T03:45:32;20.02;;;8.32;;
48873;SDS011;35220;46.204;5.220;2022-12-07T03:50:57;18.77;;;8.05;;
48873;SDS011;35220;46.204;5.220;2022-12-07T03:56:09;21.50;;;8.30;;
48873;SDS011;35220;46.204;5.220;2022-12-07T04:01:11;19.80;;;8.88;;
48873;SDS011;35220;46.204;5.220;2022-12-07T04:06:11;20.85;;;9.20;;
48873;SDS011;35220;46.204;5.220;2022-12-07T04:11:12;19.58;;;8.73;;
48873;SDS011;35220;46.204;5.220;2022-12-07T04:16:12;19.27;;;9.57;;
48873;SDS011;35220;46.204;5.220;2022-12-07T04:21:13;18.50;;;9.02;;
48873;SDS011;35220;46.204;5.220;2022-12-07T04:26:13;22.73;;;8.98;;
48873;SDS011;35220;46.204;5.220;2022-12-07T04:31:14;21.55;;;8.70;;
48873;SDS011;35220;46.204;5.220;2022-12-07T04:36:14;17.52;;;8.73;;
48873;SDS011;35220;46.204;5.220;2022-12-07T04:41:15;20.20;;;9.45;;
48873;SDS011;35220;46.204;5.220;2022-12-07T04:46:15;18.42;;;8.82;;
48873;SDS011;35220;46.204;5.220;2022-12-07T04:51:18;21.10;;;9.50;;
48873;SDS011;35220;46.204;5.220;2022-12-07T04:56:24;22.52;;;8.98;;
48873;SDS011;35220;46.204;5.220;2022-12-07T05:01:27;16.00;;;7.90;;
48873;SDS011;35220;46.204;5.220;2022-12-07T05:06:44;19.17;;;9.32;;
48873;SDS011;35220;46.204;5.220;2022-12-07T05:11:45;18.67;;;8.60;;
48873;SDS011;35220;46.204;5.220;2022-12-07T05:16:46;19.88;;;9.63;;
48873;SDS011;35220;46.204;5.220;2022-12-07T05:21:48;18.92;;;9.30;;
48873;SDS011;35220;46.204;5.220;2022-12-07T05:26:49;21.35;;;9.35;;
48873;SDS011;35220;46.204;5.220;2022-12-07T05:31:49;19.70;;;8.50;;
48873;SDS011;35220;46.204;5.220;2022-12-07T05:36:50;21.30;;;9.57;;
48873;SDS011;35220;46.204;5.220;2022-12-07T05:41:50;17.75;;;9.63;;
48873;SDS011;35220;46.204;5.220;2022-12-07T05:47:10;16.77;;;8.48;;
48873;SDS011;35220;46.204;5.220;2022-12-07T05:52:11;21.13;;;9.52;;
48873;SDS011;35220;46.204;5.220;2022-12-07T05:57:11;18.17;;;8.55;;
48873;SDS011;35220;46.204;5.220;2022-12-07T06:02:13;18.92;;;8.93;;
48873;SDS011;35220;46.204;5.220;2022-12-07T06:07:15;21.95;;;10.27;;
48873;SDS011;35220;46.204;5.220;2022-12-07T06:12:16;19.77;;;10.55;;
48873;SDS011;35220;46.204;5.220;2022-12-07T06:17:35;24.50;;;10.32;;
48873;SDS011;35220;46.204;5.220;2022-12-07T06:22:36;18.58;;;9.50;;
48873;SDS011;35220;46.204;5.220;2022-12-07T06:27:40;20.45;;;9.75;;
48873;SDS011;35220;46.204;5.220;2022-12-07T06:32:41;18.63;;;10.23;;
48873;SDS011;35220;46.204;5.220;2022-12-07T06:37:41;20.92;;;9.70;;
48873;SDS011;35220;46.204;5.220;2022-12-07T06:42:41;23.58;;;10.20;;
48873;SDS011;35220;46.204;5.220;2022-12-07T06:47:42;20.02;;;10.05;;
48873;SDS011;35220;46.204;5.220;2022-12-07T06:52:42;19.40;;;9.77;;
48873;SDS011;35220;46.204;5.220;2022-12-07T06:57:43;20.55;;;10.05;;
48873;SDS011;35220;46.204;5.220;2022-12-07T07:02:43;23.77;;;10.00;;
48873;SDS011;35220;46.204;5.220;2022-12-07T07:07:44;22.58;;;9.98;;
48873;SDS011;35220;46.204;5.220;2022-12-07T07:12:44;20.90;;;10.25;;
48873;SDS011;35220;46.204;5.220;2022-12-07T07:17:45;19.92;;;8.15;;
48873;SDS011;35220;46.204;5.220;2022-12-07T07:22:45;21.33;;;10.02;;
48873;SDS011;35220;46.204;5.220;2022-12-07T07:27:46;18.23;;;8.57;;
48873;SDS011;35220;46.204;5.220;2022-12-07T07:32:46;18.95;;;9.70;;
48873;SDS011;35220;46.204;5.220;2022-12-07T07:37:47;24.42;;;11.35;;
48873;SDS011;35220;46.204;5.220;2022-12-07T07:42:47;26.90;;;10.75;;
48873;SDS011;35220;46.204;5.220;2022-12-07T07:47:49;22.15;;;10.57;;
48873;SDS011;35220;46.204;5.220;2022-12-07T07:52:51;18.48;;;9.43;;
48873;SDS011;35220;46.204;5.220;2022-12-07T07:57:51;23.30;;;10.27;;
48873;SDS011;35220;46.204;5.220;2022-12-07T08:02:52;24.88;;;10.93;;
48873;SDS011;35220;46.204;5.220;2022-12-07T08:07:52;22.45;;;10.65;;
48873;SDS011;35220;46.204;5.220;2022-12-07T08:12:53;22.45;;;9.73;;
48873;SDS011;35220;46.204;5.220;2022-12-07T08:18:12;23.67;;;10.65;;
48873;SDS011;35220;46.204;5.220;2022-12-07T08:23:14;22.80;;;9.95;;
48873;SDS011;35220;46.204;5.220;2022-12-07T08:28:15;22.00;;;11.50;;
48873;SDS011;35220;46.204;5.220;2022-12-07T08:33:15;23.77;;;10.80;;
48873;SDS011;35220;46.204;5.220;2022-12-07T08:38:16;21.05;;;9.93;;
48873;SDS011;35220;46.204;5.220;2022-12-07T08:43:16;22.33;;;11.05;;
48873;SDS011;35220;46.204;5.220;2022-12-07T08:48:17;25.70;;;10.90;;
48873;SDS011;35220;46.204;5.220;2022-12-07T08:53:21;24.98;;;11.00;;
48873;SDS011;35220;46.204;5.220;2022-12-07T08:58:22;19.83;;;9.93;;
48873;SDS011;35220;46.204;5.220;2022-12-07T09:03:23;21.92;;;10.27;;
48873;SDS011;35220;46.204;5.220;2022-12-07T09:08:36;21.50;;;10.50;;
48873;SDS011;35220;46.204;5.220;2022-12-07T09:18:41;26.43;;;11.60;;
48873;SDS011;35220;46.204;5.220;2022-12-07T09:23:42;22.73;;;9.50;;
48873;SDS011;35220;46.204;5.220;2022-12-07T09:28:42;23.35;;;10.07;;
48873;SDS011;35220;46.204;5.220;2022-12-07T09:33:43;21.58;;;10.13;;
48873;SDS011;35220;46.204;5.220;2022-12-07T09:38:44;24.58;;;10.82;;
48873;SDS011;35220;46.204;5.220;2022-12-07T09:43:44;22.08;;;10.50;;
48873;SDS011;35220;46.204;5.220;2022-12-07T09:48:46;18.83;;;9.77;;
48873;SDS011;35220;46.204;5.220;2022-12-07T09:53:49;24.20;;;10.52;;
48873;SDS011;35220;46.204;5.220;2022-12-07T09:58:56;25.35;;;11.63;;
48873;SDS011;35220;46.204;5.220;2022-12-07T10:04:08;24.58;;;12.20;;
48873;SDS011;35220;46.204;5.220;2022-12-07T10:09:13;20.63;;;11.07;;
48873;SDS011;35220;46.204;5.220;2022-12-07T10:14:15;23.42;;;9.65;;
48873;SDS011;35220;46.204;5.220;2022-12-07T10:19:25;19.60;;;10.23;;
48873;SDS011;35220;46.204;5.220;2022-12-07T10:24:33;20.70;;;9.80;;
48873;SDS011;35220;46.204;5.220;2022-12-07T10:29:37;21.33;;;10.70;;
48873;SDS011;35220;46.204;5.220;2022-12-07T10:34:39;20.65;;;9.88;;
48873;SDS011;35220;46.204;5.220;2022-12-07T10:39:44;19.75;;;9.40;;
48873;SDS011;35220;46.204;5.220;2022-12-07T10:44:49;19.48;;;9.52;;
48873;SDS011;35220;46.204;5.220;2022-12-07T11:06:37;20.90;;;10.98;;
48873;SDS011;35220;46.204;5.220;2022-12-07T11:11:48;21.30;;;9.68;;
48873;SDS011;35220;46.204;5.220;2022-12-07T11:17:02;18.33;;;9.05;;
48873;SDS011;35220;46.204;5.220;2022-12-07T11:22:30;22.10;;;10.27;;
48873;SDS011;35220;46.204;5.220;2022-12-07T11:32:47;21.60;;;9.95;;
48873;SDS011;35220;46.204;5.220;2022-12-07T11:37:49;23.13;;;10.95;;
48873;SDS011;35220;46.204;5.220;2022-12-07T11:42:59;22.47;;;9.67;;
48873;SDS011;35220;46.204;5.220;2022-12-07T11:48:25;20.80;;;9.35;;
48873;SDS011;35220;46.204;5.220;2022-12-07T11:53:33;20.75;;;9.52;;
48873;SDS011;35220;46.204;5.220;2022-12-07T12:03:41;22.88;;;11.50;;
48873;SDS011;35220;46.204;5.220;2022-12-07T12:24:23;24.58;;;10.50;;
48873;SDS011;35220;46.204;5.220;2022-12-07T12:29:34;22.00;;;10.18;;
48873;SDS011;35220;46.204;5.220;2022-12-07T12:45:19;21.38;;;9.82;;
48873;SDS011;35220;46.204;5.220;2022-12-07T12:50:37;19.45;;;9.10;;
48873;SDS011;35220;46.204;5.220;2022-12-07T13:00:42;22.13;;;9.65;;
48873;SDS011;35220;46.204;5.220;2022-12-07T13:05:42;24.00;;;10.70;;
48873;SDS011;35220;46.204;5.220;2022-12-07T13:10:44;24.63;;;10.43;;
48873;SDS011;35220;46.204;5.220;2022-12-07T13:15:47;25.15;;;10.55;;
48873;SDS011;35220;46.204;5.220;2022-12-07T13:25:59;23.02;;;9.00;;
48873;SDS011;35220;46.204;5.220;2022-12-07T13:31:12;23.60;;;11.20;;
48873;SDS011;35220;46.204;5.220;2022-12-07T13:36:18;25.73;;;10.88;;
48873;SDS011;35220;46.204;5.220;2022-12-07T13:41:27;22.60;;;10.07;;
48873;SDS011;35220;46.204;5.220;2022-12-07T13:46:35;20.77;;;11.32;;
48873;SDS011;35220;46.204;5.220;2022-12-07T13:51:51;22.10;;;9.75;;
48873;SDS011;35220;46.204;5.220;2022-12-07T13:56:52;19.70;;;9.15;;
48873;SDS011;35220;46.204;5.220;2022-12-07T14:01:53;23.35;;;10.10;;
48873;SDS011;35220;46.204;5.220;2022-12-07T14:06:54;23.90;;;11.02;;
48873;SDS011;35220;46.204;5.220;2022-12-07T14:11:55;18.38;;;9.20;;
48873;SDS011;35220;46.204;5.220;2022-12-07T14:22:06;18.60;;;9.30;;
48873;SDS011;35220;46.204;5.220;2022-12-07T14:27:16;17.13;;;8.98;;
48873;SDS011;35220;46.204;5.220;2022-12-07T14:32:22;19.50;;;10.43;;
48873;SDS011;35220;46.204;5.220;2022-12-07T14:37:28;19.00;;;10.13;;
48873;SDS011;35220;46.204;5.220;2022-12-07T14:42:30;21.25;;;10.20;;
48873;SDS011;35220;46.204;5.220;2022-12-07T14:47:31;20.23;;;9.38;;
48873;SDS011;35220;46.204;5.220;2022-12-07T14:52:32;17.10;;;9.45;;
48873;SDS011;35220;46.204;5.220;2022-12-07T14:57:33;20.45;;;10.32;;
48873;SDS011;35220;46.204;5.220;2022-12-07T15:02:34;20.92;;;9.60;;
48873;SDS011;35220;46.204;5.220;2022-12-07T15:07:35;20.27;;;9.18;;
48873;SDS011;35220;46.204;5.220;2022-12-07T15:12:37;21.63;;;10.48;;
48873;SDS011;35220;46.204;5.220;2022-12-07T15:17:38;16.05;;;8.73;;
48873;SDS011;35220;46.204;5.220;2022-12-07T15:22:39;20.63;;;9.45;;
48873;SDS011;35220;46.204;5.220;2022-12-07T15:27:40;19.25;;;9.45;;
48873;SDS011;35220;46.204;5.220;2022-12-07T15:32:40;21.35;;;8.90;;
48873;SDS011;35220;46.204;5.220;2022-12-07T15:37:41;19.35;;;9.45;;
48873;SDS011;35220;46.204;5.220;2022-12-07T15:42:41;19.48;;;10.13;;
48873;SDS011;35220;46.204;5.220;2022-12-07T15:47:43;17.17;;;8.93;;
48873;SDS011;35220;46.204;5.220;2022-12-07T15:52:47;14.88;;;8.30;;
48873;SDS011;35220;46.204;5.220;2022-12-07T15:57:48;20.52;;;9.88;;
48873;SDS011;35220;46.204;5.220;2022-12-07T16:02:49;20.58;;;8.70;;
48873;SDS011;35220;46.204;5.220;2022-12-07T16:07:49;16.25;;;8.50;;
48873;SDS011;35220;46.204;5.220;2022-12-07T16:12:50;18.92;;;8.27;;
48873;SDS011;35220;46.204;5.220;2022-12-07T16:17:51;18.83;;;8.98;;
48873;SDS011;35220;46.204;5.220;2022-12-07T16:22:52;23.35;;;10.10;;
48873;SDS011;35220;46.204;5.220;2022-12-07T16:27:53;18.98;;;9.40;;
48873;SDS011;35220;46.204;5.220;2022-12-07T16:32:54;17.45;;;9.25;;
48873;SDS011;35220;46.204;5.220;2022-12-07T16:37:54;19.23;;;9.82;;
48873;SDS011;35220;46.204;5.220;2022-12-07T16:42:55;17.08;;;10.88;;
48873;SDS011;35220;46.204;5.220;2022-12-07T16:47:55;16.55;;;8.93;;
48873;SDS011;35220;46.204;5.220;2022-12-07T16:52:56;17.88;;;9.15;;
48873;SDS011;35220;46.204;5.220;2022-12-07T16:57:56;19.33;;;9.52;;
48873;SDS011;35220;46.204;5.220;2022-12-07T17:02:57;17.63;;;8.88;;
48873;SDS011;35220;46.204;5.220;2022-12-07T17:07:57;17.98;;;9.65;;
48873;SDS011;35220;46.204;5.220;2022-12-07T17:12:58;17.98;;;8.82;;
48873;SDS011;35220;46.204;5.220;2022-12-07T17:17:59;17.52;;;8.98;;
48873;SDS011;35220;46.204;5.220;2022-12-07T17:22:59;22.15;;;9.13;;
48873;SDS011;35220;46.204;5.220;2022-12-07T17:28:00;20.40;;;9.93;;
48873;SDS011;35220;46.204;5.220;2022-12-07T17:33:00;21.48;;;9.90;;
48873;SDS011;35220;46.204;5.220;2022-12-07T17:38:01;18.05;;;9.30;;
48873;SDS011;35220;46.204;5.220;2022-12-07T17:43:02;22.20;;;10.30;;
48873;SDS011;35220;46.204;5.220;2022-12-07T17:48:03;17.52;;;9.00;;
48873;SDS011;35220;46.204;5.220;2022-12-07T17:53:04;20.77;;;9.52;;
48873;SDS011;35220;46.204;5.220;2022-12-07T17:58:10;15.65;;;8.82;;
48873;SDS011;35220;46.204;5.220;2022-12-07T18:03:10;21.40;;;9.23;;
48873;SDS011;35220;46.204;5.220;2022-12-07T18:08:11;17.75;;;9.52;;
48873;SDS011;35220;46.204;5.220;2022-12-07T18:13:11;18.52;;;10.32;;
48873;SDS011;35220;46.204;5.220;2022-12-07T18:18:42;22.60;;;10.95;;
48873;SDS011;35220;46.204;5.220;2022-12-07T18:23:43;21.25;;;10.43;;
48873;SDS011;35220;46.204;5.220;2022-12-07T18:28:44;17.65;;;8.88;;
48873;SDS011;35220;46.204;5.220;2022-12-07T18:33:45;19.23;;;10.32;;
48873;SDS011;35220;46.204;5.220;2022-12-07T18:38:49;17.05;;;9.30;;
48873;SDS011;35220;46.204;5.220;2022-12-07T18:43:51;19.13;;;10.32;;
48873;SDS011;35220;46.204;5.220;2022-12-07T18:48:51;17.17;;;9.23;;
48873;SDS011;35220;46.204;5.220;2022-12-07T18:53:52;20.80;;;9.02;;
48873;SDS011;35220;46.204;5.220;2022-12-07T18:58:55;15.30;;;8.80;;
48873;SDS011;35220;46.204;5.220;2022-12-07T19:04:16;20.08;;;9.30;;
48873;SDS011;35220;46.204;5.220;2022-12-07T19:09:17;20.17;;;11.52;;
48873;SDS011;35220;46.204;5.220;2022-12-07T19:14:22;20.40;;;10.63;;
48873;SDS011;35220;46.204;5.220;2022-12-07T19:24:29;20.65;;;10.35;;
48873;SDS011;35220;46.204;5.220;2022-12-07T19:29:30;19.38;;;9.20;;
48873;SDS011;35220;46.204;5.220;2022-12-07T19:34:31;22.77;;;10.00;;
48873;SDS011;35220;46.204;5.220;2022-12-07T19:39:31;21.73;;;10.10;;
48873;SDS011;35220;46.204;5.220;2022-12-07T19:44:32;20.85;;;11.23;;
48873;SDS011;35220;46.204;5.220;2022-12-07T19:49:34;18.90;;;10.63;;
48873;SDS011;35220;46.204;5.220;2022-12-07T19:54:35;21.58;;;10.00;;
48873;SDS011;35220;46.204;5.220;2022-12-07T19:59:36;19.52;;;10.35;;
48873;SDS011;35220;46.204;5.220;2022-12-07T20:04:37;17.38;;;9.45;;
48873;SDS011;35220;46.204;5.220;2022-12-07T20:09:37;23.33;;;10.65;;
48873;SDS011;35220;46.204;5.220;2022-12-07T20:14:38;24.20;;;10.98;;
48873;SDS011;35220;46.204;5.220;2022-12-07T20:19:38;19.05;;;9.63;;
48873;SDS011;35220;46.204;5.220;2022-12-07T20:24:39;20.95;;;9.75;;
48873;SDS011;35220;46.204;5.220;2022-12-07T20:29:41;21.52;;;10.75;;
48873;SDS011;35220;46.204;5.220;2022-12-07T20:34:42;20.25;;;10.98;;
48873;SDS011;35220;46.204;5.220;2022-12-07T20:39:43;20.98;;;10.45;;
48873;SDS011;35220;46.204;5.220;2022-12-07T20:44:44;25.08;;;12.60;;
48873;SDS011;35220;46.204;5.220;2022-12-07T20:49:44;24.35;;;12.63;;
48873;SDS011;35220;46.204;5.220;2022-12-07T20:54:45;21.52;;;10.55;;
48873;SDS011;35220;46.204;5.220;2022-12-07T20:59:45;23.52;;;11.98;;
48873;SDS011;35220;46.204;5.220;2022-12-07T21:04:46;22.05;;;11.27;;
48873;SDS011;35220;46.204;5.220;2022-12-07T21:09:46;29.98;;;14.13;;
48873;SDS011;35220;46.204;5.220;2022-12-07T21:14:47;32.72;;;16.00;;
48873;SDS011;35220;46.204;5.220;2022-12-07T21:19:47;35.35;;;15.65;;
48873;SDS011;35220;46.204;5.220;2022-12-07T21:24:48;30.33;;;14.57;;
48873;SDS011;35220;46.204;5.220;2022-12-07T21:29:48;28.92;;;14.50;;
48873;SDS011;35220;46.204;5.220;2022-12-07T21:34:49;28.52;;;13.20;;
48873;SDS011;35220;46.204;5.220;2022-12-07T21:39:49;27.48;;;13.15;;
48873;SDS011;35220;46.204;5.220;2022-12-07T21:44:50;26.67;;;11.90;;
48873;SDS011;35220;46.204;5.220;2022-12-07T21:49:50;26.00;;;12.52;;
48873;SDS011;35220;46.204;5.220;2022-12-07T21:54:51;20.38;;;10.63;;
48873;SDS011;35220;46.204;5.220;2022-12-07T21:59:51;23.90;;;11.00;;
48873;SDS011;35220;46.204;5.220;2022-12-07T22:04:52;20.90;;;11.40;;
48873;SDS011;35220;46.204;5.220;2022-12-07T22:09:52;23.58;;;11.23;;
48873;SDS011;35220;46.204;5.220;2022-12-07T22:14:53;23.67;;;10.75;;
48873;SDS011;35220;46.204;5.220;2022-12-07T22:20:05;24.02;;;12.07;;
48873;SDS011;35220;46.204;5.220;2022-12-07T22:25:07;25.30;;;11.82;;
48873;SDS011;35220;46.204;5.220;2022-12-07T22:30:09;27.77;;;12.20;;
48873;SDS011;35220;46.204;5.220;2022-12-07T22:35:11;20.73;;;10.80;;
48873;SDS011;35220;46.204;5.220;2022-12-07T22:40:11;22.55;;;10.68;;
48873;SDS011;35220;46.204;5.220;2022-12-07T22:45:12;20.23;;;10.27;;
48873;SDS011;35220;46.204;5.220;2022-12-07T22:50:13;21.33;;;9.70;;
48873;SDS011;35220;46.204;5.220;2022-12-07T22:55:13;22.85;;;11.05;;
48873;SDS011;35220;46.204;5.220;2022-12-07T23:00:14;19.23;;;10.13;;
48873;SDS011;35220;46.204;5.220;2022-12-07T23:05:14;15.57;;;9.25;;
48873;SDS011;35220;46.204;5.220;2022-12-07T23:10:15;17.08;;;9.45;;
48873;SDS011;35220;46.204;5.220;2022-12-07T23:15:16;20.17;;;9.88;;
48873;SDS011;35220;46.204;5.220;2022-12-07T23:20:16;21.08;;;9.57;;
48873;SDS011;35220;46.204;5.220;2022-12-07T23:25:17;18.27;;;8.57;;
48873;SDS011;35220;46.204;5.220;2022-12-07T23:30:17;17.42;;;8.27;;
48873;SDS011;35220;46.204;5.220;2022-12-07T23:35:18;14.98;;;8.32;;
48873;SDS011;35220;46.204;5.220;2022-12-07T23:40:18;14.45;;;8.30;;
48873;SDS011;35220;46.204;5.220;2022-12-07T23:45:19;16.02;;;7.68;;
48873;SDS011;35220;46.204;5.220;2022-12-07T23:50:19;18.15;;;8.52;;
48873;SDS011;35220;46.204;5.220;2022-12-07T23:55:20;14.40;;;8.18;;
